createdAt,value
2023-03-07T00:01:30.257Z,31.45
2023-03-07T00:03:59.238Z,31.07
2023-03-07T00:06:27.625Z,31.63
2023-03-07T00:08:58.551Z,30.40
2023-03-07T00:11:30.820Z,32.47
2023-03-07T00:13:59.122Z,31.67
2023-03-07T00:16:28.947Z,32.70
2023-03-07T00:18:57.389Z,32.00
2023-03-07T00:21:27.568Z,31.40
2023-03-07T00:23:58.511Z,31.23
2023-03-07T00:26:28.271Z,31.77
2023-03-07T00:28:56.873Z,31.43
2023-03-07T00:31:25.291Z,32.43
2023-03-07T00:33:56.199Z,32.43
2023-03-07T00:36:25.322Z,32.10
2023-03-07T00:38:54.361Z,33.20
2023-03-07T00:41:24.262Z,33.10
2023-03-07T00:43:52.897Z,34.03
2023-03-07T00:46:22.803Z,33.40
2023-03-07T00:48:51.004Z,33.47
2023-03-07T00:51:25.425Z,33.10
2023-03-07T00:53:56.005Z,34.90
2023-03-07T00:56:26.547Z,34.77
2023-03-07T00:58:55.183Z,34.10
2023-03-07T01:01:25.266Z,34.50
2023-03-07T01:03:55.118Z,34.70
2023-03-07T01:06:27.268Z,35.73
2023-03-07T01:08:57.370Z,33.93
2023-03-07T01:11:25.865Z,33.57
2023-03-07T01:13:56.420Z,34.53
2023-03-07T01:16:26.656Z,34.90
2023-03-07T01:18:56.934Z,35.10
2023-03-07T01:21:28.609Z,36.23
2023-03-07T01:23:57.135Z,35.50
2023-03-07T01:26:27.379Z,34.37
2023-03-07T01:28:57.330Z,35.30
2023-03-07T01:31:26.718Z,34.47
2023-03-07T01:33:56.650Z,35.03
2023-03-07T01:36:30.245Z,34.93
2023-03-07T01:39:01.032Z,34.13
2023-03-07T01:41:32.310Z,34.43
2023-03-07T01:44:02.370Z,35.40
2023-03-07T01:46:48.845Z,37.43
2023-03-07T01:49:20.721Z,33.63
2023-03-07T01:51:55.042Z,35.90
2023-03-07T01:54:25.433Z,34.93
2023-03-07T01:56:54.475Z,34.57
2023-03-07T01:59:29.818Z,33.77
2023-03-07T02:02:01.284Z,32.87
2023-03-07T02:04:34.323Z,33.13
2023-03-07T02:07:04.566Z,33.67
2023-03-07T02:09:34.049Z,33.23
2023-03-07T02:12:04.233Z,33.37
2023-03-07T02:14:32.675Z,32.87
2023-03-07T02:17:01.544Z,33.53
2023-03-07T02:19:49.290Z,33.77
2023-03-07T02:22:20.558Z,33.77
2023-03-07T02:24:54.416Z,34.43
2023-03-07T02:27:25.667Z,34.10
2023-03-07T02:29:54.762Z,33.20
2023-03-07T02:32:23.271Z,33.23
2023-03-07T02:34:51.552Z,33.27
2023-03-07T02:37:22.785Z,33.03
2023-03-07T02:39:50.958Z,33.67
2023-03-07T02:42:27.048Z,33.37
2023-03-07T02:44:59.654Z,34.67
2023-03-07T02:47:29.023Z,33.83
2023-03-07T02:49:57.481Z,34.23
2023-03-07T02:52:28.230Z,34.47
2023-03-07T02:54:56.720Z,33.87
2023-03-07T02:57:26.285Z,34.03
2023-03-07T02:59:55.084Z,33.97
2023-03-07T03:02:23.338Z,33.47
2023-03-07T03:04:51.672Z,33.00
2023-03-07T03:07:19.815Z,34.17
2023-03-07T03:09:47.985Z,34.10
2023-03-07T03:12:18.545Z,34.80
2023-03-07T03:14:48.472Z,34.50
2023-03-07T03:17:18.735Z,34.47
2023-03-07T03:19:46.928Z,34.37
2023-03-07T03:22:15.152Z,33.97
2023-03-07T03:24:44.306Z,34.13
2023-03-07T03:27:12.425Z,34.63
2023-03-07T03:29:40.739Z,33.90
2023-03-07T03:32:12.057Z,35.30
2023-03-07T03:34:40.863Z,33.27
2023-03-07T03:37:09.109Z,33.93
2023-03-07T03:39:37.967Z,35.10
2023-03-07T03:42:06.408Z,34.70
2023-03-07T03:44:36.765Z,34.77
2023-03-07T03:47:05.686Z,34.73
2023-03-07T03:49:35.497Z,34.50
2023-03-07T03:52:04.644Z,33.97
2023-03-07T03:54:33.272Z,35.57
2023-03-07T03:57:01.456Z,35.57
2023-03-07T03:59:29.738Z,34.53
2023-03-07T04:01:58.171Z,33.90
2023-03-07T04:04:26.618Z,34.00
2023-03-07T04:06:56.785Z,33.40
2023-03-07T04:09:24.961Z,33.17
2023-03-07T04:11:53.580Z,33.33
2023-03-07T04:14:22.009Z,34.63
2023-03-07T04:16:50.548Z,34.10
2023-03-07T04:19:22.174Z,35.60
2023-03-07T04:21:50.439Z,34.57
2023-03-07T04:24:20.656Z,35.67
2023-03-07T04:26:48.847Z,34.17
2023-03-07T04:29:16.948Z,33.00
2023-03-07T04:31:45.181Z,32.00
2023-03-07T04:34:14.073Z,33.23
2023-03-07T04:36:42.244Z,33.13
2023-03-07T04:39:10.983Z,34.87
2023-03-07T04:41:40.606Z,33.17
2023-03-07T04:44:08.874Z,32.17
2023-03-07T04:46:37.089Z,33.33
2023-03-07T04:49:05.413Z,32.47
2023-03-07T04:51:33.727Z,34.40
2023-03-07T04:54:02.070Z,32.50
2023-03-07T04:56:30.506Z,33.07
2023-03-07T04:59:00.601Z,32.43
2023-03-07T05:01:28.928Z,31.97
2023-03-07T05:03:57.057Z,32.70
2023-03-07T05:06:25.352Z,32.93
2023-03-07T05:08:53.622Z,32.87
2023-03-07T05:11:22.049Z,33.03
2023-03-07T05:13:50.363Z,32.97
2023-03-07T05:16:20.068Z,33.67
2023-03-07T05:18:48.283Z,32.90
2023-03-07T05:21:16.555Z,33.23
2023-03-07T05:23:44.675Z,32.57
2023-03-07T05:26:12.934Z,32.67
2023-03-07T05:28:43.154Z,31.50
2023-03-07T05:31:11.188Z,31.23
2023-03-07T05:33:45.177Z,31.47
2023-03-07T05:36:13.488Z,32.43
2023-03-07T05:38:41.823Z,31.47
2023-03-07T05:41:10.472Z,31.07
2023-03-07T05:43:40.701Z,30.30
2023-03-07T05:46:09.506Z,32.23
2023-03-07T05:48:37.835Z,32.80
2023-03-07T05:51:08.038Z,31.60
2023-03-07T05:53:36.463Z,29.93
2023-03-07T05:56:05.095Z,30.57
2023-03-07T05:58:34.200Z,30.87
2023-03-07T06:01:04.468Z,32.27
2023-03-07T06:03:32.926Z,31.53
2023-03-07T06:06:01.359Z,31.83
2023-03-07T06:08:31.290Z,31.50
2023-03-07T06:10:59.562Z,30.63
2023-03-07T06:13:28.123Z,31.37
2023-03-07T06:15:57.156Z,30.73
2023-03-07T06:18:26.886Z,30.73
2023-03-07T06:20:59.108Z,30.27
2023-03-07T06:23:27.551Z,30.23
2023-03-07T06:25:57.837Z,30.40
2023-03-07T06:28:26.670Z,30.50
2023-03-07T06:30:55.025Z,30.57
2023-03-07T06:33:23.301Z,29.67
2023-03-07T06:35:51.527Z,30.00
2023-03-07T06:38:20.037Z,30.17
2023-03-07T06:40:57.873Z,30.13
2023-03-07T06:43:26.501Z,30.23
2023-03-07T06:45:57.887Z,28.80
2023-03-07T06:48:27.028Z,32.87
2023-03-07T06:50:58.575Z,29.23
2023-03-07T06:53:27.021Z,29.33
2023-03-07T06:55:55.752Z,29.10
2023-03-07T06:58:27.895Z,28.40
2023-03-07T07:00:56.789Z,31.10
2023-03-07T07:03:24.892Z,29.47
2023-03-07T07:05:53.386Z,28.87
2023-03-07T07:08:21.555Z,29.30
2023-03-07T07:10:50.012Z,29.77
2023-03-07T07:13:18.181Z,30.33
2023-03-07T07:15:48.133Z,29.93
2023-03-07T07:18:17.346Z,29.37
2023-03-07T07:20:45.763Z,29.03
2023-03-07T07:23:13.747Z,28.93
2023-03-07T07:25:41.803Z,28.83
2023-03-07T07:28:10.339Z,29.00
2023-03-07T07:30:38.581Z,29.90
2023-03-07T07:33:08.692Z,29.30
2023-03-07T07:35:37.035Z,29.57
2023-03-07T07:38:07.482Z,28.80
2023-03-07T07:40:35.481Z,29.83
2023-03-07T07:43:03.675Z,30.37
2023-03-07T07:45:31.966Z,30.00
2023-03-07T07:48:00.330Z,29.60
2023-03-07T07:50:30.338Z,28.90
2023-03-07T07:52:58.427Z,29.57
2023-03-07T07:55:28.489Z,29.33
2023-03-07T07:57:56.675Z,29.20
2023-03-07T08:00:25.255Z,29.50
2023-03-07T08:02:53.955Z,29.50
2023-03-07T08:05:23.080Z,29.40
2023-03-07T08:07:53.637Z,29.40
2023-03-07T08:10:22.039Z,29.47
2023-03-07T08:12:52.744Z,29.40
2023-03-07T08:15:21.744Z,29.40
2023-03-07T08:17:52.578Z,30.03
2023-03-07T08:20:22.574Z,29.97
2023-03-07T08:22:53.114Z,30.00
2023-03-07T08:25:24.079Z,30.00
2023-03-07T08:27:55.225Z,29.10
2023-03-07T08:30:24.720Z,29.77
2023-03-07T08:32:53.626Z,29.53
2023-03-07T08:35:22.342Z,30.07
2023-03-07T08:37:50.634Z,29.60
2023-03-07T08:40:22.736Z,29.50
2023-03-07T08:42:50.758Z,30.37
2023-03-07T08:45:19.182Z,30.13
2023-03-07T08:47:47.917Z,30.93
2023-03-07T08:50:16.620Z,29.83
2023-03-07T08:52:45.129Z,30.03
2023-03-07T08:55:13.269Z,30.93
2023-03-07T08:57:42.715Z,29.80
2023-03-07T09:00:12.646Z,30.67
2023-03-07T09:02:41.194Z,30.10
2023-03-07T09:05:10.336Z,29.80
2023-03-07T09:07:38.763Z,30.70
2023-03-07T09:10:08.119Z,30.27
2023-03-07T09:13:29.995Z,30.87
2023-03-07T09:23:18.716Z,30.43
2023-03-07T09:25:48.977Z,30.57
2023-03-07T09:28:20.815Z,30.57
2023-03-07T09:31:37.261Z,30.67
2023-03-07T09:34:26.261Z,30.60
2023-03-07T09:37:15.636Z,31.07
2023-03-07T09:39:54.408Z,31.10
2023-03-07T09:42:35.695Z,31.87
2023-03-07T09:45:40.825Z,31.90
2023-03-07T09:48:52.795Z,31.27
2023-03-07T09:51:28.374Z,31.50
2023-03-07T09:54:13.641Z,31.60
2023-03-07T09:58:41.958Z,31.57
2023-03-07T10:00:02.537Z,31.77
2023-03-07T10:02:37.140Z,31.87
2023-03-07T10:05:24.388Z,32.00
2023-03-07T10:08:18.031Z,31.13
2023-03-07T10:10:57.166Z,31.47
2023-03-07T10:14:15.369Z,32.37
2023-03-07T10:24:49.865Z,31.23
2023-03-07T10:27:59.996Z,30.37
2023-03-07T10:42:33.794Z,31.03
2023-03-07T10:45:04.561Z,31.27
2023-03-07T10:47:37.047Z,31.93
2023-03-07T10:50:24.817Z,31.47
2023-03-07T10:52:58.167Z,31.37
2023-03-07T10:55:43.184Z,31.20
2023-03-07T10:58:25.213Z,30.93
2023-03-07T11:01:05.112Z,31.30
2023-03-07T11:03:52.059Z,31.10
2023-03-07T11:06:34.634Z,32.17
2023-03-07T11:09:19.222Z,30.83
2023-03-07T11:11:51.352Z,32.20
2023-03-07T11:14:21.953Z,31.67
2023-03-07T11:16:54.756Z,30.50
2023-03-07T11:19:39.013Z,31.40
2023-03-07T11:22:19.500Z,32.23
2023-03-07T11:24:59.119Z,31.50
2023-03-07T11:27:37.179Z,31.97
2023-03-07T11:30:28.348Z,31.33
2023-03-07T11:33:20.104Z,30.90
2023-03-07T11:35:58.335Z,31.10
2023-03-07T11:38:37.690Z,31.10
2023-03-07T11:41:11.545Z,31.10
2023-03-07T11:43:55.320Z,30.33
2023-03-07T11:46:33.229Z,29.67
2023-03-07T11:49:19.192Z,30.17
2023-03-07T11:52:01.477Z,30.83
2023-03-07T11:54:38.094Z,30.90
2023-03-07T11:57:20.156Z,30.07
2023-03-07T12:00:18.122Z,30.47
2023-03-07T12:03:03.343Z,30.47
2023-03-07T12:05:55.675Z,31.43
2023-03-07T12:08:36.283Z,30.83
2023-03-07T12:11:16.799Z,29.53
2023-03-07T12:13:57.459Z,30.67
2023-03-07T12:16:32.896Z,30.80
2023-03-07T12:19:24.865Z,31.83
2023-03-07T12:22:27.384Z,30.20
2023-03-07T12:25:19.735Z,30.57
2023-03-07T12:27:59.699Z,30.97
2023-03-07T12:30:36.933Z,30.73
2023-03-07T12:33:07.443Z,30.80
2023-03-07T12:35:44.590Z,31.37
2023-03-07T12:38:34.974Z,32.67
2023-03-07T12:41:13.353Z,31.17
2023-03-07T12:43:47.616Z,31.03
2023-03-07T12:46:21.561Z,30.70
2023-03-07T12:48:55.397Z,31.03
2023-03-07T12:51:32.582Z,31.60
2023-03-07T12:54:11.633Z,30.87
2023-03-07T12:56:48.326Z,32.10
2023-03-07T12:59:17.725Z,32.13
2023-03-07T13:01:49.950Z,31.70
2023-03-07T13:04:21.272Z,31.90
2023-03-07T13:06:49.971Z,32.20
2023-03-07T13:09:24.351Z,31.93
2023-03-07T13:12:34.126Z,32.27
2023-03-07T13:15:06.109Z,32.30
2023-03-07T13:18:02.217Z,32.27
2023-03-07T13:20:40.109Z,32.40
2023-03-07T13:23:24.746Z,32.60
2023-03-07T13:26:24.382Z,32.33
2023-03-07T13:28:53.896Z,32.13
2023-03-07T13:31:45.660Z,30.73
2023-03-07T13:34:48.721Z,30.67
2023-03-07T13:38:00.619Z,30.43
2023-03-07T13:40:55.214Z,31.00
2023-03-07T13:44:03.194Z,29.83
2023-03-07T13:46:47.966Z,29.90
2023-03-07T13:49:35.974Z,29.53
2023-03-07T13:52:34.250Z,30.43
2023-03-07T13:55:05.737Z,29.47
2023-03-07T13:57:41.873Z,29.90
2023-03-07T14:00:33.134Z,29.83
2023-03-07T14:03:02.454Z,29.53
2023-03-07T14:05:34.579Z,29.97
2023-03-07T14:08:04.176Z,30.80
2023-03-07T14:10:33.074Z,30.87
2023-03-07T14:13:34.131Z,29.77
2023-03-07T14:16:23.083Z,30.47
2023-03-07T14:19:05.760Z,30.43
2023-03-07T14:21:52.123Z,30.90
2023-03-07T14:24:54.142Z,30.60
2023-03-07T14:27:22.560Z,30.97
2023-03-07T14:29:52.257Z,31.80
2023-03-07T14:32:31.212Z,31.80
2023-03-07T14:35:00.565Z,30.70
2023-03-07T14:37:33.369Z,31.93
2023-03-07T14:40:33.609Z,32.03
2023-03-07T14:43:17.122Z,32.13
2023-03-07T14:45:51.721Z,31.47
2023-03-07T14:48:41.230Z,32.10
2023-03-07T14:51:14.535Z,31.53
2023-03-07T14:53:43.528Z,31.00
2023-03-07T14:56:22.204Z,31.93
2023-03-07T14:58:55.949Z,32.20
2023-03-07T15:01:24.597Z,31.90
2023-03-07T15:03:55.781Z,31.83
2023-03-07T15:06:26.381Z,31.87
2023-03-07T15:08:57.865Z,31.67
2023-03-07T15:11:34.060Z,31.67
2023-03-07T15:14:04.913Z,31.77
2023-03-07T15:16:38.524Z,34.00
2023-03-07T15:19:15.420Z,33.10
2023-03-07T15:21:49.378Z,30.73
2023-03-07T15:24:24.224Z,31.07
2023-03-07T15:26:56.364Z,31.43
2023-03-07T15:29:26.847Z,31.43
2023-03-07T15:31:58.568Z,32.30
2023-03-07T15:34:30.641Z,32.23
2023-03-07T15:37:23.635Z,32.80
2023-03-07T15:39:59.483Z,32.70
2023-03-07T15:42:28.149Z,32.30
2023-03-07T15:45:01.722Z,32.50
2023-03-07T15:47:36.102Z,33.07
2023-03-07T15:50:08.376Z,31.87
2023-03-07T15:52:37.932Z,32.07
2023-03-07T15:55:17.338Z,31.63
2023-03-07T15:57:52.731Z,31.80
2023-03-07T16:00:25.329Z,32.07
2023-03-07T16:03:16.621Z,32.40
2023-03-07T16:05:46.103Z,32.37
2023-03-07T16:08:18.034Z,32.60
2023-03-07T16:10:53.899Z,32.27
2023-03-07T16:13:24.729Z,32.00
2023-03-07T16:16:04.053Z,32.23
2023-03-07T16:18:36.051Z,32.67
2023-03-07T16:21:05.816Z,32.00
2023-03-07T16:23:34.140Z,32.83
2023-03-07T16:26:06.037Z,33.03
2023-03-07T16:28:34.634Z,31.90
2023-03-07T16:31:02.771Z,32.50
2023-03-07T16:33:30.915Z,31.70
2023-03-07T16:35:59.115Z,31.90
2023-03-07T16:38:28.735Z,32.23
2023-03-07T16:40:57.848Z,31.00
2023-03-07T16:43:44.772Z,31.77
2023-03-07T16:46:16.088Z,31.50
2023-03-07T16:48:45.518Z,30.23
2023-03-07T16:51:17.935Z,30.97
2023-03-07T16:53:48.659Z,29.63
2023-03-07T16:56:24.792Z,29.67
2023-03-07T16:58:53.522Z,29.80
2023-03-07T17:01:22.241Z,28.93
2023-03-07T17:03:50.231Z,28.53
2023-03-07T17:06:25.442Z,29.47
2023-03-07T17:09:03.146Z,30.97
2023-03-07T17:11:31.156Z,30.37
2023-03-07T17:14:01.361Z,30.77
2023-03-07T17:16:31.730Z,31.83
2023-03-07T17:18:59.754Z,31.43
2023-03-07T17:21:28.059Z,30.97
2023-03-07T17:23:56.797Z,31.27
2023-03-07T17:26:30.840Z,31.57
2023-03-07T17:29:02.381Z,30.43
2023-03-07T17:31:30.826Z,30.80
2023-03-07T17:34:00.032Z,32.27
2023-03-07T17:36:29.175Z,31.30
2023-03-07T17:38:58.562Z,30.60
2023-03-07T17:41:28.460Z,31.30
2023-03-07T17:43:57.272Z,30.87
2023-03-07T17:46:26.502Z,31.27
2023-03-07T17:48:55.966Z,31.20
2023-03-07T17:51:24.682Z,31.40
2023-03-07T17:53:53.643Z,31.03
2023-03-07T17:56:22.419Z,32.87
2023-03-07T17:58:52.714Z,31.77
2023-03-07T18:01:22.685Z,30.87
2023-03-07T18:03:58.330Z,30.43
2023-03-07T18:06:26.845Z,30.10
2023-03-07T18:08:58.795Z,30.07
2023-03-07T18:11:27.021Z,30.17
2023-03-07T18:13:56.418Z,30.40
2023-03-07T18:16:25.920Z,29.17
2023-03-07T18:19:00.517Z,28.53
2023-03-07T18:21:34.560Z,29.83
2023-03-07T18:24:02.860Z,28.60
2023-03-07T18:26:31.017Z,28.83
2023-03-07T18:29:00.686Z,28.60
2023-03-07T18:31:29.214Z,28.30
2023-03-07T18:33:57.785Z,29.57
2023-03-07T18:36:27.018Z,28.43
2023-03-07T18:38:55.523Z,28.87
2023-03-07T18:41:26.601Z,29.47
2023-03-07T18:43:55.042Z,29.30
2023-03-07T18:46:26.270Z,29.60
2023-03-07T18:48:57.012Z,29.53
2023-03-07T18:51:26.960Z,30.50
2023-03-07T18:53:57.858Z,30.17
2023-03-07T18:56:26.767Z,29.63
2023-03-07T18:58:56.047Z,30.83
2023-03-07T19:01:27.604Z,31.57
2023-03-07T19:03:57.721Z,30.17
2023-03-07T19:06:27.003Z,30.03
2023-03-07T19:08:55.284Z,30.50
2023-03-07T19:11:23.525Z,29.83
2023-03-07T19:13:51.665Z,30.07
2023-03-07T19:16:22.836Z,30.17
2023-03-07T19:18:52.782Z,30.37
2023-03-07T19:21:22.786Z,29.93
2023-03-07T19:23:52.154Z,30.00
2023-03-07T19:26:21.065Z,30.07
2023-03-07T19:28:50.643Z,32.13
2023-03-07T19:31:20.379Z,31.50
2023-03-07T19:33:49.755Z,32.43
2023-03-07T19:36:21.355Z,43.00
2023-03-07T19:38:50.585Z,34.03
2023-03-07T19:41:20.294Z,32.83
2023-03-07T19:43:48.579Z,30.03
2023-03-07T19:46:18.805Z,29.50
2023-03-07T19:48:47.797Z,29.43
2023-03-07T19:51:18.937Z,30.13
2023-03-07T19:53:47.841Z,31.23
2023-03-07T19:56:19.605Z,30.23
2023-03-07T19:58:47.580Z,30.53
2023-03-07T20:01:17.803Z,30.17
2023-03-07T20:03:47.660Z,29.37
2023-03-07T20:06:21.395Z,29.53
2023-03-07T20:08:52.536Z,30.30
2023-03-07T20:11:22.158Z,29.53
2023-03-07T20:13:50.472Z,28.73
2023-03-07T20:16:20.442Z,28.50
2023-03-07T20:18:55.506Z,28.10
2023-03-07T20:21:28.127Z,27.97
2023-03-07T20:24:16.487Z,27.13
2023-03-07T20:29:41.520Z,27.80
2023-03-07T20:32:11.562Z,27.30
2023-03-07T20:35:43.821Z,28.23
2023-03-07T20:57:42.444Z,29.07
2023-03-07T21:00:12.110Z,29.13
2023-03-07T21:02:40.989Z,29.73
2023-03-07T21:05:09.882Z,29.87
2023-03-07T21:07:38.175Z,30.00
2023-03-07T21:10:06.870Z,29.93
2023-03-07T21:12:35.853Z,29.90
2023-03-07T21:15:05.946Z,30.77
2023-03-07T21:17:35.196Z,30.80
2023-03-07T21:20:04.812Z,31.17
2023-03-07T21:22:33.157Z,30.93
2023-03-07T21:25:01.300Z,31.10
2023-03-07T21:27:29.789Z,31.07
2023-03-07T21:29:57.909Z,31.17
2023-03-07T21:32:27.621Z,32.43
2023-03-07T21:34:56.195Z,32.17
2023-03-07T21:37:25.865Z,32.83
2023-03-07T21:39:54.156Z,32.30
2023-03-07T21:42:22.322Z,32.37
2023-03-07T21:44:56.340Z,32.93
2023-03-07T21:47:24.516Z,33.53
2023-03-07T21:49:56.813Z,35.43
2023-03-07T21:52:25.050Z,36.10
2023-03-07T21:54:53.152Z,35.43
2023-03-07T21:57:21.369Z,34.80
2023-03-07T21:59:52.562Z,34.77
2023-03-07T22:02:23.028Z,33.23
2023-03-07T22:04:51.696Z,32.70
2023-03-07T22:07:21.308Z,33.20
2023-03-07T22:09:49.554Z,32.93
2023-03-07T22:12:17.737Z,33.87
2023-03-07T22:14:46.037Z,33.90
2023-03-07T22:17:14.266Z,34.40
2023-03-07T22:19:42.447Z,34.80
2023-03-07T22:22:10.519Z,34.80
2023-03-07T22:24:39.861Z,34.23
2023-03-07T22:27:08.254Z,34.63
2023-03-07T22:29:36.530Z,34.20
2023-03-07T22:32:05.081Z,33.90
2023-03-07T22:34:33.518Z,34.23
2023-03-07T22:37:01.668Z,33.73
2023-03-07T22:39:29.682Z,36.17
2023-03-07T22:41:59.369Z,36.90
2023-03-07T22:44:27.481Z,37.87
2023-03-07T22:46:56.378Z,36.70
2023-03-07T22:49:26.807Z,35.07
2023-03-07T22:51:55.100Z,35.70
2023-03-07T22:54:23.728Z,36.27
2023-03-07T22:56:51.758Z,35.63
2023-03-07T22:59:21.438Z,37.30
2023-03-07T23:01:49.592Z,35.20
2023-03-07T23:04:17.582Z,36.13
2023-03-07T23:06:45.664Z,35.50
2023-03-07T23:09:13.865Z,36.00
2023-03-07T23:11:46.561Z,35.27
2023-03-07T23:14:14.510Z,34.30
2023-03-07T23:16:44.114Z,36.13
2023-03-07T23:19:12.388Z,36.20
2023-03-07T23:21:41.081Z,35.47
2023-03-07T23:24:09.791Z,35.67
2023-03-07T23:26:40.086Z,36.17
2023-03-07T23:29:11.836Z,34.17
2023-03-07T23:31:41.489Z,33.73
2023-03-07T23:34:17.243Z,33.60
2023-03-07T23:36:45.820Z,33.60
2023-03-07T23:39:15.388Z,35.57
2023-03-07T23:41:43.865Z,36.43
2023-03-07T23:44:12.488Z,36.77
2023-03-07T23:46:40.976Z,35.53
2023-03-07T23:49:11.580Z,35.37
2023-03-07T23:51:39.672Z,36.23
2023-03-07T23:54:07.836Z,34.47
2023-03-07T23:56:35.816Z,34.27
2023-03-07T23:59:04.100Z,33.80
